createdAt,value
2022-10-28T00:02:34.000Z,100583.44
2022-10-28T00:07:34.000Z,100588.09
2022-10-28T00:12:35.000Z,100585.7
2022-10-28T00:17:34.000Z,100584.03
2022-10-28T00:22:34.000Z,100568.25
2022-10-28T00:27:35.000Z,100567.12
2022-10-28T00:32:34.000Z,100573.55
2022-10-28T00:37:35.000Z,100577.05
2022-10-28T00:42:34.000Z,100573.72
2022-10-28T00:47:35.000Z,100578.53
2022-10-28T00:52:34.000Z,100578.53
2022-10-28T00:57:35.000Z,100573.02
2022-10-28T01:02:35.000Z,100565.36
2022-10-28T01:07:35.000Z,100572.45
2022-10-28T01:12:35.000Z,100575.29
2022-10-28T01:17:34.000Z,100569.16
2022-10-28T01:22:35.000Z,100567.17
2022-10-28T01:27:34.000Z,100564.49
2022-10-28T01:32:35.000Z,100564.62
2022-10-28T01:37:35.000Z,100572.35
2022-10-28T01:42:35.000Z,100571.98
2022-10-28T01:47:34.000Z,100565.85
2022-10-28T01:52:35.000Z,100563.36
2022-10-28T01:57:34.000Z,100566.62
2022-10-28T02:02:34.000Z,100567.29
2022-10-28T02:07:35.000Z,100567.29
2022-10-28T02:12:35.000Z,100566.59
2022-10-28T02:17:34.000Z,100558.72
2022-10-28T02:22:35.000Z,100558.72
2022-10-28T02:27:34.000Z,100560.22
2022-10-28T02:32:35.000Z,100564.26
2022-10-28T02:37:34.000Z,100567.94
2022-10-28T02:42:35.000Z,100573.8
2022-10-28T02:47:35.000Z,100572.21
2022-10-28T02:57:34.000Z,100574.39
2022-10-28T03:02:35.000Z,100577.33
2022-10-28T03:07:34.000Z,100571.26
2022-10-28T03:12:34.000Z,100569.87
2022-10-28T03:17:35.000Z,100571.98
2022-10-28T03:27:35.000Z,100568.58
2022-10-28T03:32:34.000Z,100570.16
2022-10-28T03:42:35.000Z,100571
2022-10-28T03:47:34.000Z,100567.58
2022-10-28T03:52:35.000Z,100557.87
2022-10-28T03:57:35.000Z,100556.76
2022-10-28T04:02:35.000Z,100554.03
2022-10-28T04:07:35.000Z,100551.61
2022-10-28T04:12:34.000Z,100548.64
2022-10-28T04:17:34.000Z,100547.53
2022-10-28T04:22:35.000Z,100547.53
2022-10-28T04:27:34.000Z,100543.08
2022-10-28T04:32:35.000Z,100536.69
2022-10-28T04:37:35.000Z,100542.23
2022-10-28T04:42:35.000Z,100554.05
2022-10-28T04:52:34.000Z,100544.78
2022-10-28T04:57:35.000Z,100541.36
2022-10-28T05:02:35.000Z,100537.18
2022-10-28T05:07:35.000Z,100536.64
2022-10-28T05:12:35.000Z,100538.83
2022-10-28T05:17:34.000Z,100534.36
2022-10-28T05:22:34.000Z,100538.37
2022-10-28T05:27:34.000Z,100533.27
2022-10-28T05:32:35.000Z,100538.34
2022-10-28T05:37:34.000Z,100539.71
2022-10-28T05:42:35.000Z,100542
2022-10-28T05:47:34.000Z,100542
2022-10-28T05:52:34.000Z,100547.79
2022-10-28T05:57:34.000Z,100549.41
2022-10-28T06:02:34.000Z,100540.22
2022-10-28T06:07:35.000Z,100528.36
2022-10-28T06:17:34.000Z,100524.2
2022-10-28T06:22:35.000Z,100533.88
2022-10-28T06:27:34.000Z,100524.53
2022-10-28T06:32:35.000Z,100528.4
2022-10-28T06:37:34.000Z,100525.32
2022-10-28T06:42:34.000Z,100522.35
2022-10-28T06:47:35.000Z,100515.34
2022-10-28T06:52:35.000Z,100516.8
2022-10-28T06:57:39.000Z,100516.8
2022-10-28T07:02:35.000Z,100507.81
2022-10-28T07:12:35.000Z,100511.75
2022-10-28T07:17:34.000Z,100511.44
2022-10-28T07:22:35.000Z,100508.73
2022-10-28T07:27:35.000Z,100508.85
2022-10-28T07:32:35.000Z,100503.35
2022-10-28T07:37:35.000Z,100503.35
2022-10-28T07:42:34.000Z,100502.21
2022-10-28T07:47:35.000Z,100500.29
2022-10-28T07:52:34.000Z,100498.98
2022-10-28T07:57:34.000Z,100499.23
2022-10-28T08:02:35.000Z,100505.84
2022-10-28T08:07:34.000Z,100505.81
2022-10-28T08:12:34.000Z,100502.27
2022-10-28T08:17:35.000Z,100492.52
2022-10-28T08:22:35.000Z,100490.56
2022-10-28T08:27:35.000Z,100500.04
2022-10-28T08:32:34.000Z,100501.33
2022-10-28T08:37:35.000Z,100505.73
2022-10-28T08:42:35.000Z,100495.6
2022-10-28T08:47:34.000Z,100489.06
2022-10-28T08:52:35.000Z,100489.4
2022-10-28T08:57:35.000Z,100489.4
2022-10-28T09:02:35.000Z,100486.86
2022-10-28T09:07:34.000Z,100485.32
2022-10-28T09:12:35.000Z,100479.24
2022-10-28T09:17:35.000Z,100472.5
2022-10-28T09:22:35.000Z,100463.77
2022-10-28T09:27:35.000Z,100456.75
2022-10-28T09:32:35.000Z,100449.1
2022-10-28T09:42:35.000Z,100446.26
2022-10-28T09:47:34.000Z,100430.7
2022-10-28T09:52:34.000Z,100419.3
2022-10-28T09:57:35.000Z,100411.86
2022-10-28T10:02:35.000Z,100411.8
2022-10-28T10:07:35.000Z,100412.42
2022-10-28T10:12:34.000Z,100410.08
2022-10-28T10:17:34.000Z,100411.69
2022-10-28T10:22:35.000Z,100406.86
2022-10-28T10:27:35.000Z,100400.01
2022-10-28T10:32:35.000Z,100392.04
2022-10-28T10:37:34.000Z,100387.47
2022-10-28T10:42:35.000Z,100383.22
2022-10-28T10:47:34.000Z,100383.22
2022-10-28T10:57:35.000Z,100369.93
2022-10-28T11:02:35.000Z,100363.95
2022-10-28T11:07:35.000Z,100355.88
2022-10-28T11:12:35.000Z,100353.77
2022-10-28T11:17:35.000Z,100353.77
2022-10-28T11:22:35.000Z,100349.89
2022-10-28T11:27:34.000Z,100353.71
2022-10-28T11:32:35.000Z,100355.14
2022-10-28T11:37:35.000Z,100348.95
2022-10-28T11:42:35.000Z,100350.78
2022-10-28T11:47:35.000Z,100350.05
2022-10-28T11:52:34.000Z,100348.93
2022-10-28T11:57:35.000Z,100344.33
2022-10-28T12:02:35.000Z,100332.65
2022-10-28T12:07:34.000Z,100328.43
2022-10-28T12:12:35.000Z,100327.16
2022-10-28T12:17:34.000Z,100328.02
2022-10-28T12:22:34.000Z,100331.51
2022-10-28T12:27:34.000Z,100330.76
2022-10-28T12:32:35.000Z,100330.76
2022-10-28T12:37:34.000Z,100322.26
2022-10-28T12:42:35.000Z,100321.57
2022-10-28T12:47:35.000Z,100316.64
2022-10-28T12:52:35.000Z,100316.92
2022-10-28T12:57:34.000Z,100312.92
2022-10-28T13:02:35.000Z,100319.78
2022-10-28T13:07:35.000Z,100321.31
2022-10-28T13:12:35.000Z,100319.89
2022-10-28T13:17:34.000Z,100317.75
2022-10-28T13:22:35.000Z,100309.04
2022-10-28T13:32:34.000Z,100289.16
2022-10-28T13:37:35.000Z,100288.34
2022-10-28T13:42:34.000Z,100290.79
2022-10-28T13:47:34.000Z,100290.79
2022-10-28T13:52:34.000Z,100292.15
2022-10-28T13:57:34.000Z,100288.43
2022-10-28T14:02:45.000Z,100284.38
2022-10-28T14:07:35.000Z,100294.55
2022-10-28T14:12:34.000Z,100292.75
2022-10-28T14:17:35.000Z,100293.54
2022-10-28T14:22:34.000Z,100292.23
2022-10-28T14:27:35.000Z,100288.15
2022-10-28T14:32:35.000Z,100276.58
2022-10-28T14:37:38.000Z,100272.06
2022-10-28T14:42:34.000Z,100275.32
2022-10-28T14:47:34.000Z,100277.02
2022-10-28T14:52:34.000Z,100275.57
2022-10-28T14:57:39.000Z,100270.39
2022-10-28T15:02:35.000Z,100270.39
2022-10-28T15:07:35.000Z,100266.68
2022-10-28T15:12:35.000Z,100260.42
2022-10-28T15:17:34.000Z,100260.55
2022-10-28T15:22:35.000Z,100254.51
2022-10-28T15:27:35.000Z,100251.73
2022-10-28T15:32:34.000Z,100254.31
2022-10-28T15:37:34.000Z,100252.8
2022-10-28T15:42:35.000Z,100250.98
2022-10-28T15:47:34.000Z,100250.08
2022-10-28T15:52:35.000Z,100252.43
2022-10-28T15:57:35.000Z,100245.93
2022-10-28T16:02:35.000Z,100240.63
2022-10-28T16:07:35.000Z,100238.56
2022-10-28T16:12:34.000Z,100239.96
2022-10-28T16:17:35.000Z,100239.96
2022-10-28T16:27:35.000Z,100238.28
2022-10-28T16:32:35.000Z,100246.03
2022-10-28T16:37:34.000Z,100242.27
2022-10-28T16:42:35.000Z,100241.69
2022-10-28T16:47:35.000Z,100232.84
2022-10-28T16:52:35.000Z,100231.65
2022-10-28T16:57:35.000Z,100231.56
2022-10-28T17:02:35.000Z,100231.56
2022-10-28T17:07:35.000Z,100226.62
2022-10-28T17:12:34.000Z,100220.41
2022-10-28T17:17:35.000Z,100218.09
2022-10-28T17:22:35.000Z,100215.15
2022-10-28T17:27:34.000Z,100216.21
2022-10-28T17:32:35.000Z,100214.32
2022-10-28T17:37:35.000Z,100213.3
2022-10-28T17:42:34.000Z,100205.18
2022-10-28T17:47:35.000Z,100195.31
2022-10-28T17:52:35.000Z,100189.67
2022-10-28T17:57:34.000Z,100191.06
2022-10-28T18:02:35.000Z,100192.13
2022-10-28T18:07:35.000Z,100188.98
2022-10-28T18:12:34.000Z,100186.1
2022-10-28T18:17:34.000Z,100186.1
2022-10-28T18:22:35.000Z,100185.1
2022-10-28T18:27:34.000Z,100183.95
2022-10-28T18:32:35.000Z,100183.32
2022-10-28T18:37:34.000Z,100179.56
2022-10-28T18:42:34.000Z,100175.54
2022-10-28T18:47:34.000Z,100169.68
2022-10-28T18:52:35.000Z,100168.35
2022-10-28T18:57:34.000Z,100170.49
2022-10-28T19:02:35.000Z,100168.65
2022-10-28T19:07:34.000Z,100164.27
2022-10-28T19:12:35.000Z,100159.68
2022-10-28T19:17:34.000Z,100154.84
2022-10-28T19:22:35.000Z,100158.02
2022-10-28T19:27:34.000Z,100158.02
2022-10-28T19:37:34.000Z,100154.47
2022-10-28T19:42:35.000Z,100152.51
2022-10-28T19:47:35.000Z,100152.51
2022-10-28T19:52:34.000Z,100150.38
2022-10-28T19:57:35.000Z,100143.96
2022-10-28T20:02:35.000Z,100147.41
2022-10-28T20:07:34.000Z,100141.28
2022-10-28T20:17:34.000Z,100132.54
2022-10-28T20:22:34.000Z,100127.66
2022-10-28T20:27:35.000Z,100128.46
2022-10-28T20:32:34.000Z,100111.45
2022-10-28T20:37:35.000Z,100111.45
2022-10-28T20:42:35.000Z,100106.17
2022-10-28T20:47:34.000Z,100109.34
2022-10-28T20:52:35.000Z,100096.69
2022-10-28T20:57:34.000Z,100087.99
2022-10-28T21:02:34.000Z,100084.08
2022-10-28T21:07:35.000Z,100079.47
2022-10-28T21:12:34.000Z,100072.59
2022-10-28T21:17:35.000Z,100063.84
2022-10-28T21:22:35.000Z,100058.12
2022-10-28T21:27:34.000Z,100061.28
2022-10-28T21:37:34.000Z,100058.26
2022-10-28T21:42:35.000Z,100055.87
2022-10-28T21:47:35.000Z,100050.14
2022-10-28T21:52:34.000Z,100045.89
2022-10-28T21:57:35.000Z,100041.78
2022-10-28T22:02:35.000Z,100031.77
2022-10-28T22:07:35.000Z,100033.37
2022-10-28T22:12:34.000Z,100029.3
2022-10-28T22:17:34.000Z,100029.3
2022-10-28T22:22:35.000Z,100024.58
2022-10-28T22:27:34.000Z,100016.05
2022-10-28T22:32:35.000Z,100005.66
2022-10-28T22:37:35.000Z,100008.89
2022-10-28T22:42:35.000Z,100008.75
2022-10-28T22:47:34.000Z,100005.89
2022-10-28T22:52:35.000Z,99999.32
2022-10-28T22:57:34.000Z,99992.64
2022-10-28T23:02:35.000Z,99989.3
2022-10-28T23:07:35.000Z,99989.37
2022-10-28T23:12:34.000Z,99983.79
2022-10-28T23:17:35.000Z,99974.22
2022-10-28T23:22:35.000Z,99970.65
2022-10-28T23:27:35.000Z,99970.65
2022-10-28T23:32:35.000Z,99970.51
2022-10-28T23:37:34.000Z,99971.53
2022-10-28T23:42:35.000Z,99967.13
2022-10-28T23:47:34.000Z,99965.07
2022-10-28T23:52:35.000Z,99962.86
2022-10-28T23:57:35.000Z,99961.77
